Wetterstation Rottenburg Seebronn / 442m msl / http://mut-lambrecht.de
LETZTE AKTUALISIERUNG UM: 10:05 DATUM: Dezember 02 2022, time of next update: 10:10
Aktuelles Wettermostly cloudy - drizzle; mist Aktuelle Temperatur 3.0°C (37.4°F), Apparent temp 1.2°C
Höchsttemperatur (seit Mitternacht)3.0°C um: 01:21 Tiefsttemperatur (seit Mitternacht)2.7°C um: 06:25
Windgeschwindigkeit (10 Minuten )3.7 kmh (2.0 kts) Windrichtung (Dir) (10 Minuten )NNE (11°)
Windchill Temperatur 2.9°C Windspitzen (letzte Std)10.1 kmh (5.5 kts) um: 09:20
Windspitzen (seit Mitternacht)16.8 kmh (9.1 kts) um: 06:41 Höchstes Windmittel / Minute (seit Mitternacht)7.5 kmh (4.1 kts) um: 02:41
Regenmenge (letzte Std)0.0 mm Regenmenge (seit Mitternacht)0.0 mm (0.00 in.)---
Regenmenge diesen Monat 0.0 mm (0.00 in.) Regenmenge seit Jahresbeginn 166.1 mm (6.54 in.)
Höchste Regenmenge pro Minute (letzte Std)0.0 mm/min Höchste Regenmenge pro Stunde (letzte 6 Std)0.0 mm/stunde
Regenmenge Gestern 0.0 mm Taupunkt 1.0°C (Wet Bulb :2.3°C )
Luftfeuchtigkeit 87 %, Humidex 1.1°C Aktueller Luftdruck (auf Meereshöhe bezogen)1016.1 hPa
Luftdrucktendenz 0.0 hPa (letzte Std) Trend (letzte 1 Std)gleichbleibend
Luftdrucktendenz (letzte 12 Std)-2.7 hPa Luftdrucktendenz (letzte 6 Std)-0.6 hPa


Grafische Darstellung der letzten 24 Stunden.
Grafische Darstellung der letzten 48 Stunden.
Grafische Darstellung der letzten 72 Stunden.
Grafische Darstellung der letzten month.


Weather report/warning/Metars

Stuttgart-Echterdingen, Germany (EDDS) 48-41N 009-13E 391M
Dec 02, 2022 - 03:50 AM EST / 2022.12.02 0850 UTC
Wind: from the NW (310 degrees) at 5 MPH (4 KT):0
Visibility: 2 mile(s):0
Sky conditions: mostly cloudy
Weather: drizzle; mist
Temperature: 37 F (3 C)
Dew Point: 35 F (2 C)
Relative Humidity: 93%
Pressure (altimeter): 30.06 in. Hg (1018 hPa)
ob: EDDS 020850Z AUTO 31004KT 3700 DZ BR BKN005 03/02 Q1018 NOSIG
cycle: 9
Karlsruhe, Baden Wurttemberg, Germany (EDSB) 48-46-43N 008-04-47E
Dec 02, 2022 - 03:20 AM EST / 2022.12.02 0820 UTC
Wind: from the NNE (020 degrees) at 6 MPH (5 KT):0
Visibility: 2 mile(s):0
Sky conditions: overcast
Weather: light drizzle; mist
Temperature: 37 F (3 C)
Dew Point: 35 F (2 C)
Relative Humidity: 93%
Pressure (altimeter): 30.12 in. Hg (1020 hPa)
ob: EDSB 020820Z 02005KT 4500 -DZ BR OVC008 03/02 Q1020
cycle: 8
Lahr, CAN-AFB, Germany (EDTL) 48-22-09N 007-49-40E
Dec 02, 2022 - 03:50 AM EST / 2022.12.02 0850 UTC
Wind: from the N (360 degrees) at 6 MPH (5 KT):0
Visibility: 1 mile(s):0
Sky conditions: overcast
Weather: mist
Temperature: 39 F (4 C)
Dew Point: 37 F (3 C)
Relative Humidity: 93%
Pressure (altimeter): 30.09 in. Hg (1019 hPa)
ob: EDTL 020850Z 36005KT 2500 BR OVC005 04/03 Q1019
cycle: 9
Laupheim, Germany (ETHL) 48-13N 009-55E 550M
Dec 02, 2022 - 03:45 AM EST / 2022.12.02 0845 UTC
Wind: from the ESE (120 degrees) at 2 MPH (2 KT):0
Visibility: 3 mile(s):0
Sky conditions: overcast
Weather: mist
Temperature: 33 F (1 C)
Dew Point: 33 F (1 C)
Relative Humidity: 100%
Pressure (altimeter): 30.03 in. Hg (1017 hPa)
ob: ETHL 020845Z 12002KT 5000 BR SCT003 OVC018 01/01 Q1017 WHT WHT TEMPO AMB
cycle: 9


Klicken Sie hier, um zu den Durchschnitts-, Extrem-, Monats- oder Tageswerten zu gelangen


Die Wetterdaten werden alle 5 Minuten aktualisiert.
Die 3 stündige Echtzeitgrafik wird jede Minute aktualisiert.
Bei der 3 stündige Echtzeitgrafik sind derzeit die Skalenfarben von Winddurchschnitt u. Windböen vertauscht. (Softwarebug)

Drücken Sie gegebenenfalls auf "Aktualisieren" in Ihrem Browser, um die aktuellsten Daten zu erhalten.